Time;durP1;ratioP1;P1;durP2;ratioP2;P2;SDS_P1;SDS_P2;PMS_P1;PMS_P2;Temp;Humidity;BMP_temperature;BMP_pressure;BME280_temperature;BME280_humidity;BME280_pressure;Samples;Min_cycle;Max_cycle;Signal;HPM_P1;HPM_P2
2022/01/12 00:01:01;;;;;;;72.38;23.70;;;6.90;99.90;;;;;;5013926;28;20033;-74
2022/01/12 00:03:27;;;;;;;79.32;24.83;;;6.90;99.90;;;;;;5014291;28;20052;-73
2022/01/12 00:05:53;;;;;;;66.43;22.83;;;6.90;99.90;;;;;;5013893;28;20026;-75
2022/01/12 00:08:19;;;;;;;67.13;22.98;;;6.90;99.90;;;;;;5013573;28;20472;-72
2022/01/12 00:10:45;;;;;;;76.43;23.55;;;6.90;99.90;;;;;;5013306;28;20093;-74
2022/01/12 00:13:10;;;;;;;62.63;20.40;;;7.00;99.90;;;;;;5012603;28;20129;-74
2022/01/12 00:15:36;;;;;;;67.50;21.02;;;6.90;99.90;;;;;;5013330;28;20133;-73
2022/01/12 00:18:03;;;;;;;63.28;20.27;;;7.00;99.90;;;;;;5013803;28;20038;-75
2022/01/12 00:20:28;;;;;;;65.82;20.50;;;7.00;99.90;;;;;;5012623;28;20017;-74
2022/01/12 00:22:54;;;;;;;64.57;21.10;;;7.00;99.90;;;;;;5012068;28;20022;-73
2022/01/12 00:33:16;;;;;;;53.65;18.50;;;7.20;99.90;;;;;;5011567;28;20033;-74
2022/01/12 00:35:48;;;;;;;52.45;18.27;;;7.20;99.90;;;;;;5010186;28;20038;-75
2022/01/12 00:38:15;;;;;;;46.83;16.88;;;7.20;99.90;;;;;;5008275;28;20105;-72
2022/01/12 00:40:44;;;;;;;54.63;17.60;;;7.30;99.90;;;;;;5009015;28;20184;-74
2022/01/12 00:43:10;;;;;;;54.17;18.98;;;7.30;99.90;;;;;;5008087;28;20034;-72
2022/01/12 00:45:43;;;;;;;45.00;15.77;;;7.30;99.90;;;;;;4989736;28;20072;-74
2022/01/12 00:48:09;;;;;;;54.92;16.92;;;7.30;99.90;;;;;;5006200;28;20064;-74
2022/01/12 00:50:36;;;;;;;52.55;16.55;;;7.30;99.90;;;;;;5000159;28;20027;-73
2022/01/12 00:53:03;;;;;;;56.38;17.98;;;7.30;99.90;;;;;;4994493;28;20038;-71
2022/01/12 00:55:30;;;;;;;51.22;17.67;;;7.30;99.90;;;;;;4994771;28;20671;-71
2022/01/12 00:57:58;;;;;;;50.95;16.40;;;7.30;99.90;;;;;;4993234;28;20039;-72
2022/01/12 01:00:24;;;;;;;53.95;17.52;;;7.30;99.90;;;;;;4997333;28;20064;-74
2022/01/12 01:02:49;;;;;;;51.58;17.35;;;7.30;99.90;;;;;;5002770;28;20457;-73
2022/01/12 01:05:20;;;;;;;54.88;19.13;;;7.30;99.90;;;;;;4998987;28;20058;-72
2022/01/12 01:07:45;;;;;;;59.65;18.98;;;7.30;99.90;;;;;;4994406;28;20026;-74
2022/01/12 01:10:15;;;;;;;54.63;17.45;;;7.30;99.90;;;;;;5006051;28;20037;-74
2022/01/12 01:12:41;;;;;;;60.10;16.45;;;7.30;99.90;;;;;;4994374;28;20022;-72
2022/01/12 01:15:12;;;;;;;52.10;16.45;;;7.30;99.90;;;;;;4992987;28;20112;-72
2022/01/12 01:25:41;;;;;;;66.78;20.05;;;7.30;99.90;;;;;;5002266;28;20049;-73
2022/01/12 01:28:07;;;;;;;59.20;19.60;;;7.30;99.90;;;;;;4998537;28;20118;-73
2022/01/12 01:30:36;;;;;;;58.53;20.35;;;7.40;99.90;;;;;;5004361;28;20577;-73
2022/01/12 01:33:07;;;;;;;59.20;19.83;;;7.40;99.90;;;;;;4994182;28;20022;-72
2022/01/12 01:35:35;;;;;;;74.18;21.35;;;7.50;99.90;;;;;;4995461;28;20499;-73
2022/01/12 01:38:02;;;;;;;70.38;20.38;;;7.50;99.90;;;;;;5013141;28;20168;-74
2022/01/12 01:40:29;;;;;;;61.78;20.20;;;7.60;99.90;;;;;;4997711;28;20026;-73
2022/01/12 01:43:10;;;;;;;60.55;18.98;;;7.60;99.90;;;;;;4993831;28;20026;-73
2022/01/12 01:53:52;;;;;;;58.13;19.67;;;7.70;99.90;;;;;;4993551;28;20030;-74
2022/01/12 01:56:21;;;;;;;64.40;21.23;;;7.80;99.90;;;;;;5001049;28;20083;-71
2022/01/12 01:58:48;;;;;;;69.40;21.67;;;7.80;99.90;;;;;;5013397;28;20042;-72
2022/01/12 02:01:15;;;;;;;61.58;20.73;;;7.80;99.90;;;;;;5012994;28;20041;-75
2022/01/12 02:03:41;;;;;;;61.38;20.13;;;7.90;99.90;;;;;;5012943;28;20029;-74
2022/01/12 02:06:08;;;;;;;60.95;22.15;;;7.90;99.90;;;;;;5010097;28;20052;-73
2022/01/12 02:08:35;;;;;;;61.53;21.73;;;7.90;99.90;;;;;;5010003;28;20038;-73
2022/01/12 02:11:01;;;;;;;60.22;20.95;;;7.90;99.90;;;;;;5001086;28;20073;-72
2022/01/12 02:13:28;;;;;;;64.20;21.13;;;7.90;99.90;;;;;;4992968;28;20114;-72
2022/01/12 02:15:55;;;;;;;65.22;22.67;;;7.90;99.90;;;;;;4996722;28;20061;-72
2022/01/12 02:18:37;;;;;;;55.45;21.42;;;8.00;99.90;;;;;;5004628;28;20033;-71
2022/01/12 02:40:27;;;;;;;65.05;21.83;;;7.80;99.90;;;;;;5012686;28;20033;-74
2022/01/12 02:43:11;;;;;;;71.10;23.27;;;7.80;99.90;;;;;;5006580;28;20049;-72
2022/01/12 02:53:42;;;;;;;71.43;21.90;;;7.60;99.90;;;;;;4997061;28;20023;-73
2022/01/12 02:56:14;;;;;;;78.27;22.13;;;7.60;99.90;;;;;;5007026;28;20065;-71
2022/01/12 02:58:41;;;;;;;66.78;22.55;;;7.60;99.90;;;;;;4998543;28;20046;-72
2022/01/12 03:03:53;;;;;;;59.75;20.27;;;7.50;99.90;;;;;;4998244;28;20031;-73
2022/01/12 03:06:27;;;;;;;62.78;17.40;;;7.50;99.90;;;;;;5014728;28;20037;-73
2022/01/12 03:08:53;;;;;;;60.58;18.80;;;7.50;99.90;;;;;;5016541;28;20360;-73
2022/01/12 03:11:20;;;;;;;60.10;18.58;;;7.50;99.90;;;;;;5016521;28;20030;-72
2022/01/12 03:13:46;;;;;;;60.60;18.40;;;7.50;99.90;;;;;;5016049;28;20053;-72
2022/01/12 03:16:16;;;;;;;57.95;17.00;;;7.50;99.90;;;;;;5015338;28;20042;-73
2022/01/12 03:18:46;;;;;;;50.53;14.02;;;7.50;99.90;;;;;;5016162;28;20145;-71
2022/01/12 03:21:12;;;;;;;45.75;13.18;;;7.50;99.90;;;;;;5016452;28;20100;-73
2022/01/12 03:23:39;;;;;;;38.60;10.85;;;7.50;99.90;;;;;;5015848;28;20033;-70
2022/01/12 03:26:06;;;;;;;44.97;10.27;;;7.50;99.90;;;;;;5015775;28;20041;-71
2022/01/12 03:28:32;;;;;;;36.80;9.10;;;7.40;99.90;;;;;;5016226;28;20480;-70
2022/01/12 03:31:07;;;;;;;42.22;10.02;;;7.40;99.90;;;;;;5014186;28;20049;-73
2022/01/12 03:36:27;;;;;;;35.50;7.47;;;7.30;99.90;;;;;;5015719;28;20026;-72
2022/01/12 03:38:58;;;;;;;36.97;8.75;;;7.30;99.90;;;;;;5014680;28;20042;-73
2022/01/12 03:41:26;;;;;;;29.23;6.60;;;7.30;99.90;;;;;;5015980;28;20113;-72
2022/01/12 03:43:52;;;;;;;40.40;7.63;;;7.20;99.90;;;;;;5015903;28;20033;-71
2022/01/12 03:46:22;;;;;;;37.35;6.55;;;7.20;99.90;;;;;;5015592;28;20030;-71
2022/01/12 03:48:48;;;;;;;39.40;7.10;;;7.20;99.90;;;;;;5014063;28;20435;-71
2022/01/12 03:51:14;;;;;;;33.03;6.82;;;7.10;99.90;;;;;;5015944;28;20033;-73
2022/01/12 03:53:39;;;;;;;37.95;8.35;;;7.10;99.90;;;;;;5014197;28;20040;-73
2022/01/12 03:56:05;;;;;;;32.75;6.72;;;7.00;99.90;;;;;;5015229;28;20038;-73
2022/01/12 03:58:30;;;;;;;32.88;6.78;;;7.00;99.90;;;;;;5015186;28;20038;-73
2022/01/12 04:00:56;;;;;;;32.30;7.30;;;6.90;99.90;;;;;;5015203;28;20022;-72
2022/01/12 04:03:21;;;;;;;31.15;6.82;;;6.90;99.90;;;;;;5015459;28;20025;-73
2022/01/12 04:08:31;;;;;;;30.25;7.32;;;6.80;99.90;;;;;;5014810;28;20107;-70
2022/01/12 04:11:00;;;;;;;27.02;7.28;;;6.70;99.90;;;;;;5015513;28;20061;-73
2022/01/12 04:13:28;;;;;;;34.33;6.93;;;6.70;99.90;;;;;;5015052;28;20029;-72
2022/01/12 04:16:04;;;;;;;31.13;6.68;;;6.70;99.90;;;;;;5014714;28;20439;-73
2022/01/12 04:18:30;;;;;;;32.85;7.40;;;6.60;99.90;;;;;;5015192;28;20041;-73
2022/01/12 04:20:57;;;;;;;28.52;6.63;;;6.60;99.90;;;;;;5015491;28;20137;-72
2022/01/12 04:23:23;;;;;;;25.98;6.38;;;6.50;99.90;;;;;;5015173;28;20041;-73
2022/01/12 04:25:53;;;;;;;32.92;6.82;;;6.50;99.90;;;;;;5014658;28;20026;-73
2022/01/12 04:28:21;;;;;;;41.50;8.32;;;6.50;99.90;;;;;;5014990;28;20033;-73
2022/01/12 04:30:48;;;;;;;25.95;5.97;;;6.40;99.90;;;;;;5015004;28;20030;-74
2022/01/12 04:33:14;;;;;;;24.88;5.85;;;6.30;99.90;;;;;;5014744;28;20030;-73
2022/01/12 04:35:48;;;;;;;32.95;6.30;;;6.30;99.90;;;;;;5014763;28;20025;-72
2022/01/12 04:38:16;;;;;;;25.50;5.95;;;6.20;99.90;;;;;;5012935;28;20125;-71
2022/01/12 04:40:42;;;;;;;27.05;5.57;;;6.10;99.90;;;;;;5014738;28;20026;-72
2022/01/12 04:43:09;;;;;;;35.97;6.05;;;6.10;99.90;;;;;;5015184;28;20056;-73
2022/01/12 04:45:56;;;;;;;34.40;6.95;;;6.10;99.90;;;;;;5014232;28;20104;-71
2022/01/12 04:50:53;;;;;;;28.83;5.88;;;6.00;99.90;;;;;;5014209;28;20026;-72
2022/01/12 04:53:19;;;;;;;28.73;6.57;;;6.00;99.90;;;;;;5014694;28;20072;-72
2022/01/12 04:55:47;;;;;;;29.85;6.68;;;6.00;99.90;;;;;;5014462;28;20033;-72
2022/01/12 04:58:14;;;;;;;22.92;5.13;;;5.90;99.90;;;;;;5014023;28;20046;-71
2022/01/12 05:00:41;;;;;;;26.27;6.05;;;5.80;99.90;;;;;;5013906;28;20040;-73
2022/01/12 05:13:51;;;;;;;31.02;7.70;;;5.50;99.90;;;;;;5013372;28;20072;-73
2022/01/12 05:16:18;;;;;;;50.25;8.35;;;5.40;99.90;;;;;;5012329;28;20395;-70
2022/01/12 05:18:45;;;;;;;32.80;8.45;;;5.40;99.90;;;;;;5014067;28;20038;-73
2022/01/12 05:21:12;;;;;;;22.33;7.10;;;5.40;99.90;;;;;;5014020;28;20029;-72
2022/01/12 05:23:38;;;;;;;27.48;7.32;;;5.30;99.90;;;;;;5014190;28;20105;-73
2022/01/12 05:26:05;;;;;;;31.38;7.50;;;5.30;99.90;;;;;;5013850;28;20040;-73
2022/01/12 05:28:31;;;;;;;28.52;7.53;;;5.20;99.90;;;;;;5013384;28;20116;-71
2022/01/12 05:30:58;;;;;;;41.58;10.70;;;5.20;99.90;;;;;;5011572;28;20117;-73
2022/01/12 05:33:25;;;;;;;31.63;8.88;;;5.20;99.90;;;;;;5012967;28;20064;-73
2022/01/12 05:35:53;;;;;;;34.90;9.15;;;5.10;99.90;;;;;;5013955;28;20030;-72
2022/01/12 05:38:18;;;;;;;30.65;8.18;;;5.10;99.90;;;;;;5013523;28;20041;-69
2022/01/12 05:40:48;;;;;;;33.45;7.80;;;5.10;99.90;;;;;;5012286;28;20060;-72
2022/01/12 05:43:17;;;;;;;27.23;8.27;;;5.00;99.90;;;;;;5013685;28;20091;-72
2022/01/12 05:45:44;;;;;;;31.77;8.60;;;5.00;99.90;;;;;;5013365;28;20026;-72
2022/01/12 05:50:38;;;;;;;30.90;10.20;;;4.90;99.90;;;;;;5013136;28;20089;-72
2022/01/12 05:53:04;;;;;;;30.52;9.10;;;4.90;99.90;;;;;;5013228;28;20030;-71
2022/01/12 05:55:30;;;;;;;31.90;7.60;;;4.90;99.90;;;;;;5013210;28;20033;-71
2022/01/12 05:57:56;;;;;;;34.70;7.95;;;4.90;99.90;;;;;;5013326;28;20442;-71
2022/01/12 06:00:23;;;;;;;28.38;9.30;;;4.90;99.90;;;;;;5013260;28;20054;-71
2022/01/12 06:02:49;;;;;;;35.83;9.80;;;4.80;99.90;;;;;;5013140;28;20045;-72
2022/01/12 06:05:16;;;;;;;32.88;9.10;;;4.80;99.90;;;;;;5013451;28;20021;-70
2022/01/12 06:07:42;;;;;;;33.97;10.35;;;4.80;99.90;;;;;;5013391;28;20072;-73
2022/01/12 06:10:09;;;;;;;39.92;11.52;;;4.90;99.90;;;;;;5012821;28;20033;-72
2022/01/12 06:12:35;;;;;;;33.28;9.52;;;4.90;99.90;;;;;;5013190;28;20109;-70
2022/01/12 06:15:00;;;;;;;39.03;10.63;;;4.80;99.90;;;;;;5012661;28;20120;-73
2022/01/12 06:17:26;;;;;;;33.60;10.10;;;4.80;99.90;;;;;;5012494;28;20368;-72
2022/01/12 06:19:52;;;;;;;32.03;11.18;;;4.70;99.90;;;;;;5011505;28;20376;-70
2022/01/12 06:22:17;;;;;;;35.28;10.63;;;4.80;99.90;;;;;;5012711;28;20527;-70
2022/01/12 06:24:43;;;;;;;47.72;11.30;;;4.70;99.90;;;;;;5011658;28;20067;-73
2022/01/12 06:27:13;;;;;;;36.33;10.85;;;4.70;99.90;;;;;;5013253;28;20033;-71
2022/01/12 06:29:49;;;;;;;35.83;11.18;;;4.70;99.90;;;;;;5012791;28;20053;-72
2022/01/12 06:32:15;;;;;;;32.95;10.45;;;4.60;99.90;;;;;;5012219;28;20515;-73
2022/01/12 06:34:41;;;;;;;28.08;8.45;;;4.50;99.90;;;;;;5012057;28;20029;-71
2022/01/12 06:37:06;;;;;;;35.70;10.73;;;4.50;99.90;;;;;;5011965;28;20030;-70
2022/01/12 06:39:32;;;;;;;30.10;10.27;;;4.40;99.90;;;;;;5012845;28;20387;-72
2022/01/12 06:41:59;;;;;;;42.35;11.95;;;4.40;99.90;;;;;;5012789;28;20225;-71
2022/01/12 06:44:28;;;;;;;37.60;12.90;;;4.30;99.90;;;;;;5011323;28;20501;-72
2022/01/12 06:46:56;;;;;;;35.17;10.35;;;4.30;99.90;;;;;;5012019;28;20521;-72
2022/01/12 06:49:22;;;;;;;51.70;12.57;;;4.20;99.90;;;;;;5012567;28;20487;-73
2022/01/12 06:51:48;;;;;;;49.78;12.93;;;4.20;99.90;;;;;;5012173;28;20030;-71
2022/01/12 06:54:16;;;;;;;43.90;12.30;;;4.20;99.90;;;;;;5012658;28;20026;-72
2022/01/12 06:56:42;;;;;;;40.65;13.93;;;4.30;99.90;;;;;;5011913;28;20095;-72
2022/01/12 06:59:09;;;;;;;36.10;11.82;;;4.30;99.90;;;;;;5012240;28;20045;-73
2022/01/12 07:01:37;;;;;;;39.28;13.00;;;4.30;99.90;;;;;;5012431;28;20451;-73
2022/01/12 07:04:02;;;;;;;34.22;10.05;;;4.30;99.90;;;;;;5012517;28;20030;-71
2022/01/12 07:06:28;;;;;;;27.92;9.48;;;4.40;99.90;;;;;;5012621;28;20033;-73
2022/01/12 07:08:53;;;;;;;35.60;11.18;;;4.40;99.90;;;;;;5012738;28;20034;-73
2022/01/12 07:11:19;;;;;;;34.78;12.07;;;4.50;99.90;;;;;;5011359;28;20026;-70
2022/01/12 07:13:45;;;;;;;36.63;12.68;;;4.60;99.90;;;;;;5012432;28;20022;-70
2022/01/12 07:16:11;;;;;;;38.38;13.93;;;4.70;99.90;;;;;;5012558;28;20092;-72
2022/01/12 07:18:37;;;;;;;37.33;11.98;;;4.70;99.90;;;;;;5011115;28;20038;-71
2022/01/12 07:21:03;;;;;;;38.83;12.35;;;4.80;99.90;;;;;;5012594;28;20088;-72
2022/01/12 07:23:29;;;;;;;41.45;14.85;;;4.90;99.90;;;;;;5012575;28;20025;-72
2022/01/12 07:25:54;;;;;;;35.85;12.93;;;5.00;99.90;;;;;;5012068;28;20081;-71
2022/01/12 07:28:21;;;;;;;39.78;12.70;;;5.00;99.90;;;;;;5012027;28;20391;-70
2022/01/12 07:30:47;;;;;;;40.35;13.18;;;5.10;99.90;;;;;;5002138;28;20031;-70
2022/01/12 07:33:13;;;;;;;28.25;11.38;;;5.20;99.90;;;;;;4992816;28;20031;-71
2022/01/12 07:35:40;;;;;;;31.30;11.70;;;5.20;99.90;;;;;;4994587;28;20034;-73
2022/01/12 07:38:06;;;;;;;29.77;10.82;;;5.20;99.90;;;;;;4996328;28;20073;-71
2022/01/12 07:40:33;;;;;;;28.75;11.73;;;5.20;99.90;;;;;;4996881;28;20496;-72
2022/01/12 07:42:59;;;;;;;30.27;10.80;;;5.20;99.90;;;;;;4996366;28;20058;-72
2022/01/12 07:45:25;;;;;;;28.60;9.10;;;5.20;99.90;;;;;;4996076;28;20064;-71
2022/01/12 07:47:50;;;;;;;29.92;10.23;;;5.20;99.90;;;;;;4994520;28;20456;-72
2022/01/12 07:50:16;;;;;;;29.05;10.25;;;5.10;99.90;;;;;;5027753;28;20081;-71
2022/01/12 07:52:42;;;;;;;33.80;10.63;;;5.10;99.90;;;;;;4996281;28;20072;-71
2022/01/12 07:55:08;;;;;;;28.15;9.38;;;5.00;99.90;;;;;;4996140;28;20072;-73
2022/01/12 07:57:34;;;;;;;26.00;9.52;;;5.10;99.90;;;;;;4995757;28;20120;-72
2022/01/12 07:59:59;;;;;;;30.42;10.35;;;5.10;99.90;;;;;;4995435;28;20444;-72
2022/01/12 08:02:25;;;;;;;30.42;10.45;;;5.10;99.90;;;;;;4995718;28;20117;-72
2022/01/12 08:04:51;;;;;;;27.13;10.68;;;5.20;99.90;;;;;;4995759;28;20026;-70
2022/01/12 08:07:17;;;;;;;27.63;11.07;;;5.20;99.90;;;;;;4995543;28;20026;-70
2022/01/12 08:09:43;;;;;;;29.95;11.65;;;5.10;99.90;;;;;;4995483;28;20365;-71
2022/01/12 08:12:10;;;;;;;31.95;11.30;;;5.20;99.90;;;;;;4996024;28;20054;-70
2022/01/12 08:14:36;;;;;;;26.45;10.07;;;5.20;99.90;;;;;;4995386;28;20026;-72
2022/01/12 08:17:02;;;;;;;24.38;10.00;;;5.20;99.90;;;;;;4995617;28;20384;-72
2022/01/12 08:19:28;;;;;;;30.45;11.25;;;5.10;99.90;;;;;;4995595;28;20089;-70
2022/01/12 08:21:55;;;;;;;31.83;12.43;;;5.10;99.90;;;;;;4993983;28;20034;-72
2022/01/12 08:24:21;;;;;;;30.83;11.48;;;5.10;99.90;;;;;;4995128;28;20114;-70
2022/01/12 08:26:47;;;;;;;42.33;13.25;;;5.10;99.90;;;;;;4994617;28;20108;-71
2022/01/12 08:29:15;;;;;;;35.03;12.30;;;5.10;99.90;;;;;;5010862;28;20065;-70
2022/01/12 08:31:44;;;;;;;28.67;10.70;;;5.10;99.90;;;;;;5014837;28;20057;-72
2022/01/12 08:34:10;;;;;;;27.02;10.60;;;5.10;99.90;;;;;;5014840;28;20022;-72
2022/01/12 08:36:38;;;;;;;33.05;10.25;;;5.10;99.90;;;;;;5011819;28;20026;-71
2022/01/12 08:39:07;;;;;;;31.00;11.43;;;5.10;99.90;;;;;;5014300;28;20095;-70
2022/01/12 08:41:32;;;;;;;33.75;12.68;;;5.10;99.90;;;;;;5013566;28;20026;-70
2022/01/12 08:43:58;;;;;;;25.55;10.05;;;5.20;99.90;;;;;;5014705;28;20099;-71
2022/01/12 08:46:24;;;;;;;27.20;11.02;;;5.20;99.90;;;;;;5013996;28;20041;-70
2022/01/12 08:48:49;;;;;;;24.80;10.57;;;5.20;99.90;;;;;;5014779;28;20030;-71
2022/01/12 08:51:15;;;;;;;26.95;10.65;;;5.30;99.90;;;;;;5014170;28;20053;-70
2022/01/12 08:53:40;;;;;;;28.27;11.57;;;5.30;99.90;;;;;;5013844;28;20087;-72
2022/01/12 08:56:07;;;;;;;23.13;10.73;;;5.30;99.90;;;;;;5013935;28;20079;-71
2022/01/12 08:58:33;;;;;;;35.85;11.05;;;5.30;99.90;;;;;;5014220;28;20037;-70
2022/01/12 09:01:03;;;;;;;27.70;10.65;;;5.40;99.90;;;;;;5014025;28;20156;-70
2022/01/12 09:03:29;;;;;;;34.85;11.18;;;5.40;99.90;;;;;;5012816;28;20026;-71
2022/01/12 09:05:55;;;;;;;31.70;11.15;;;5.40;99.90;;;;;;5013862;28;20026;-70
2022/01/12 09:08:20;;;;;;;28.38;11.20;;;5.40;99.90;;;;;;5014015;28;20101;-70
2022/01/12 09:10:46;;;;;;;30.38;12.02;;;5.40;99.90;;;;;;5014364;28;20472;-71
2022/01/12 09:13:12;;;;;;;30.80;12.18;;;5.50;99.90;;;;;;5012947;28;20026;-72
2022/01/12 09:15:37;;;;;;;29.83;11.55;;;5.50;99.90;;;;;;5013918;28;20078;-72
2022/01/12 09:18:03;;;;;;;29.02;12.15;;;5.50;99.90;;;;;;5013713;28;20049;-71
2022/01/12 09:20:28;;;;;;;29.23;12.35;;;5.50;99.90;;;;;;5013504;28;20582;-70
2022/01/12 09:22:54;;;;;;;27.83;11.98;;;5.50;99.90;;;;;;5013098;28;20066;-70
2022/01/12 09:25:21;;;;;;;32.33;12.02;;;5.50;99.90;;;;;;5013143;28;20379;-70
2022/01/12 09:27:47;;;;;;;34.05;13.43;;;5.50;99.90;;;;;;5013479;28;20026;-72
2022/01/12 09:30:14;;;;;;;28.63;13.02;;;5.60;99.90;;;;;;5009790;28;20030;-72
2022/01/12 09:32:40;;;;;;;32.03;12.57;;;5.70;99.90;;;;;;5012892;28;20026;-72
2022/01/12 09:35:07;;;;;;;36.15;13.02;;;5.70;99.90;;;;;;5013431;28;20037;-72
2022/01/12 09:37:33;;;;;;;32.28;12.85;;;5.80;99.90;;;;;;5011809;28;20396;-74
2022/01/12 09:39:58;;;;;;;35.05;11.50;;;5.90;99.90;;;;;;5013729;28;20026;-71
2022/01/12 09:42:24;;;;;;;30.08;11.85;;;6.00;99.90;;;;;;5013690;28;20045;-73
2022/01/12 09:44:50;;;;;;;30.30;12.65;;;6.00;99.90;;;;;;5013175;28;20030;-72
2022/01/12 09:47:17;;;;;;;32.45;12.10;;;6.10;99.90;;;;;;5013022;28;20400;-73
2022/01/12 09:49:44;;;;;;;30.80;12.07;;;6.20;99.90;;;;;;5013463;28;20066;-71
2022/01/12 09:52:11;;;;;;;26.60;10.57;;;6.40;99.90;;;;;;5013550;28;20038;-73
2022/01/12 09:54:37;;;;;;;33.88;11.57;;;6.50;99.90;;;;;;5013326;28;20052;-74
2022/01/12 09:57:03;;;;;;;27.98;10.93;;;6.60;99.90;;;;;;5013179;28;20034;-73
2022/01/12 09:59:29;;;;;;;25.85;10.38;;;6.80;99.90;;;;;;5011830;28;20041;-71
2022/01/12 10:01:55;;;;;;;26.17;9.85;;;7.10;99.90;;;;;;5013833;28;20061;-73
2022/01/12 10:04:25;;;;;;;25.55;10.25;;;7.30;99.90;;;;;;5013297;28;20034;-71
2022/01/12 10:06:56;;;;;;;23.60;7.53;;;7.60;99.90;;;;;;5013048;28;20029;-72
2022/01/12 10:09:25;;;;;;;21.33;7.33;;;8.00;99.90;;;;;;5012835;28;20104;-73
2022/01/12 10:12:00;;;;;;;21.38;8.20;;;8.40;99.90;;;;;;5012874;28;20022;-74
2022/01/12 10:14:55;;;;;;;17.63;6.07;;;8.80;99.90;;;;;;5013051;28;20033;-72
2022/01/12 10:17:44;;;;;;;18.10;5.78;;;9.30;99.90;;;;;;5012516;28;20042;-70
2022/01/12 10:20:12;;;;;;;15.27;5.70;;;9.90;99.90;;;;;;5012878;28;20036;-72
2022/01/12 10:22:42;;;;;;;18.95;6.05;;;10.50;99.90;;;;;;5032736;28;20064;-72
2022/01/12 10:25:21;;;;;;;18.27;5.80;;;10.60;99.90;;;;;;5008394;28;20031;-72
2022/01/12 10:27:48;;;;;;;20.50;6.88;;;10.50;99.90;;;;;;4993326;28;20034;-73
2022/01/12 10:30:28;;;;;;;20.00;6.88;;;10.20;99.90;;;;;;4993180;28;20467;-73
2022/01/12 10:33:07;;;;;;;21.02;7.32;;;10.40;99.90;;;;;;4993308;28;20034;-73
2022/01/12 10:35:36;;;;;;;22.95;7.75;;;10.60;99.90;;;;;;4993224;28;20038;-72
2022/01/12 10:38:09;;;;;;;21.15;7.50;;;10.80;99.90;;;;;;4991702;28;20051;-74
2022/01/12 10:41:02;;;;;;;17.13;5.47;;;11.30;99.90;;;;;;5000896;28;20036;-70
2022/01/12 10:43:31;;;;;;;15.90;5.85;;;11.80;99.90;;;;;;5004271;28;20030;-74
2022/01/12 10:45:58;;;;;;;20.77;6.72;;;12.30;99.90;;;;;;4993044;28;20053;-70
2022/01/12 10:48:25;;;;;;;20.70;6.78;;;12.60;99.90;;;;;;4992595;28;20133;-73
2022/01/12 10:50:59;;;;;;;20.83;7.57;;;12.80;99.90;;;;;;4992944;28;20045;-72
2022/01/12 10:53:31;;;;;;;19.70;6.97;;;13.00;99.90;;;;;;4992879;28;20061;-71
2022/01/12 10:56:17;;;;;;;15.95;5.97;;;13.20;99.90;;;;;;4992848;28;20044;-73
2022/01/12 10:58:46;;;;;;;17.70;6.35;;;13.50;99.90;;;;;;4992602;28;20412;-71
2022/01/12 11:01:13;;;;;;;20.15;6.53;;;13.70;99.90;;;;;;4992756;28;20396;-73
2022/01/12 11:03:39;;;;;;;19.23;5.97;;;13.70;99.90;;;;;;4992741;28;20023;-73
2022/01/12 11:06:07;;;;;;;19.42;6.88;;;13.70;99.90;;;;;;4992907;28;20026;-73
2022/01/12 11:08:36;;;;;;;18.02;7.70;;;13.70;99.90;;;;;;5000369;28;20026;-73
2022/01/12 11:11:02;;;;;;;19.73;6.88;;;13.80;99.90;;;;;;4995199;28;20564;-71
2022/01/12 11:13:30;;;;;;;18.08;6.35;;;13.80;99.90;;;;;;4996139;28;20477;-71
2022/01/12 11:15:59;;;;;;;20.70;6.63;;;13.90;99.90;;;;;;4995993;28;20491;-72
2022/01/12 11:18:32;;;;;;;16.67;6.20;;;14.20;99.90;;;;;;4996467;28;20156;-71
2022/01/12 11:21:22;;;;;;;16.15;5.93;;;14.50;99.90;;;;;;4996658;28;20037;-74
2022/01/12 11:23:50;;;;;;;17.40;5.78;;;14.60;99.90;;;;;;4994994;28;20026;-71
2022/01/12 11:26:28;;;;;;;17.88;6.68;;;14.80;99.90;;;;;;4996470;28;20045;-71
2022/01/12 11:28:54;;;;;;;16.20;6.70;;;14.70;99.90;;;;;;4996527;28;20400;-72
2022/01/12 11:31:27;;;;;;;15.85;6.60;;;14.60;99.90;;;;;;4996261;28;20030;-71
2022/01/12 11:33:53;;;;;;;21.20;6.95;;;14.70;99.90;;;;;;4996586;28;20023;-71
2022/01/12 11:36:28;;;;;;;18.25;6.38;;;15.00;99.90;;;;;;4996224;28;20037;-72
2022/01/12 11:39:14;;;;;;;18.33;6.63;;;15.20;99.90;;;;;;4996193;28;20039;-73
2022/01/12 11:41:43;;;;;;;16.75;6.05;;;15.40;99.90;;;;;;4996108;28;20139;-71
2022/01/12 11:44:15;;;;;;;19.05;5.55;;;15.40;99.90;;;;;;4996711;28;20453;-72
2022/01/12 11:46:44;;;;;;;17.58;5.70;;;15.50;99.90;;;;;;4995934;28;20360;-73
2022/01/12 11:49:10;;;;;;;15.50;6.07;;;15.70;99.90;;;;;;4996149;28;20073;-71
2022/01/12 11:51:42;;;;;;;17.58;6.53;;;15.80;99.90;;;;;;4996075;28;20056;-73
2022/01/12 11:54:16;;;;;;;16.98;6.32;;;16.10;99.90;;;;;;4996330;28;20038;-70
2022/01/12 11:57:02;;;;;;;15.90;5.90;;;15.90;99.90;;;;;;4995808;28;20034;-73
2022/01/12 11:59:30;;;;;;;18.17;6.28;;;15.70;99.90;;;;;;4996097;28;20045;-70
2022/01/12 12:02:07;;;;;;;16.02;5.88;;;15.50;99.90;;;;;;4996072;28;20101;-71
2022/01/12 12:04:33;;;;;;;17.73;6.00;;;15.40;99.90;;;;;;4996247;28;20460;-71
2022/01/12 12:07:14;;;;;;;14.95;5.65;;;15.40;99.90;;;;;;4995879;28;20026;-73
2022/01/12 12:09:52;;;;;;;14.45;5.07;;;15.30;99.90;;;;;;4995310;28;20477;-73
2022/01/12 12:12:21;;;;;;;20.60;5.90;;;15.30;99.90;;;;;;4994353;28;20030;-73
2022/01/12 12:14:49;;;;;;;17.20;5.90;;;15.00;99.90;;;;;;4999048;28;20030;-71
2022/01/12 12:17:18;;;;;;;15.05;6.53;;;15.00;99.90;;;;;;5012420;28;20407;-74
2022/01/12 12:19:45;;;;;;;15.70;4.78;;;14.80;99.90;;;;;;4997243;28;20038;-72
2022/01/12 12:22:33;;;;;;;19.20;6.28;;;14.80;99.90;;;;;;4994117;28;20506;-73
2022/01/12 12:25:04;;;;;;;18.70;6.18;;;14.60;99.90;;;;;;4995604;28;20022;-71
2022/01/12 12:27:30;;;;;;;20.25;5.63;;;14.40;99.90;;;;;;4995553;28;20118;-70
2022/01/12 12:29:56;;;;;;;18.45;5.95;;;14.40;99.90;;;;;;4995597;28;20026;-72
2022/01/12 12:32:42;;;;;;;13.98;5.32;;;14.50;99.90;;;;;;4995367;28;20088;-73
2022/01/12 12:35:25;;;;;;;19.00;6.68;;;14.30;99.90;;;;;;4995453;28;20034;-72
2022/01/12 12:37:56;;;;;;;13.15;6.20;;;13.80;99.90;;;;;;4995283;28;20038;-73
2022/01/12 12:40:28;;;;;;;20.35;6.47;;;13.60;99.90;;;;;;5009909;28;20022;-73
2022/01/12 12:43:20;;;;;;;19.10;7.82;;;13.50;99.90;;;;;;5013393;28;20466;-71
2022/01/12 12:45:46;;;;;;;13.80;6.00;;;13.60;99.90;;;;;;5014818;28;20375;-74
2022/01/12 12:48:17;;;;;;;16.50;6.07;;;13.80;99.90;;;;;;5014777;28;20034;-71
2022/01/12 12:50:43;;;;;;;16.33;5.50;;;13.70;99.90;;;;;;5014882;28;20032;-71
2022/01/12 12:53:11;;;;;;;15.00;5.97;;;13.60;99.90;;;;;;5013660;28;20105;-71
2022/01/12 12:55:39;;;;;;;18.83;6.07;;;13.40;99.90;;;;;;5014312;28;20028;-70
2022/01/12 12:58:05;;;;;;;18.00;6.32;;;13.30;99.90;;;;;;5014466;28;20034;-74
2022/01/12 13:00:32;;;;;;;13.90;6.32;;;13.20;99.90;;;;;;5014869;28;20029;-73
2022/01/12 13:02:59;;;;;;;13.25;5.93;;;13.30;99.90;;;;;;5014391;28;20030;-73
2022/01/12 13:05:28;;;;;;;16.35;6.60;;;13.50;99.90;;;;;;5012237;28;20182;-70
2022/01/12 13:07:55;;;;;;;14.63;5.85;;;13.60;99.90;;;;;;5013770;28;20524;-70
2022/01/12 13:10:23;;;;;;;16.30;6.40;;;13.70;99.90;;;;;;5014090;28;20113;-72
2022/01/12 13:12:51;;;;;;;16.20;6.65;;;13.90;99.90;;;;;;5014248;28;20029;-73
2022/01/12 13:15:21;;;;;;;17.63;6.38;;;14.10;99.90;;;;;;5013928;28;20503;-71
2022/01/12 13:17:46;;;;;;;16.58;6.22;;;14.00;99.90;;;;;;5014167;28;20041;-73
2022/01/12 13:23:02;;;;;;;16.30;5.70;;;13.80;99.90;;;;;;5014138;28;20112;-72
2022/01/12 13:25:27;;;;;;;17.40;6.60;;;13.80;99.90;;;;;;5014104;28;20847;-75
2022/01/12 13:27:53;;;;;;;16.48;6.75;;;13.80;99.90;;;;;;5014062;28;20030;-72
2022/01/12 13:30:32;;;;;;;17.05;6.82;;;13.70;99.90;;;;;;5013970;28;20052;-74
2022/01/12 13:32:59;;;;;;;15.43;7.20;;;13.60;99.90;;;;;;5013100;28;20088;-74
2022/01/12 13:35:35;;;;;;;16.00;7.05;;;13.50;99.90;;;;;;5013842;28;20025;-71
2022/01/12 13:38:04;;;;;;;17.52;6.07;;;13.10;99.90;;;;;;5011457;28;20056;-72
2022/01/12 13:40:38;;;;;;;20.98;7.40;;;12.40;99.90;;;;;;5013412;28;20037;-71
2022/01/12 13:43:05;;;;;;;20.90;7.35;;;12.00;99.90;;;;;;5013761;28;20421;-72
2022/01/12 13:45:45;;;;;;;16.65;7.30;;;11.60;99.90;;;;;;5013675;28;20360;-71
2022/01/12 13:48:18;;;;;;;20.13;7.32;;;11.30;99.90;;;;;;5014062;28;20467;-73
2022/01/12 13:50:52;;;;;;;20.65;7.03;;;11.00;99.90;;;;;;5013722;28;20026;-72
2022/01/12 13:53:19;;;;;;;18.52;6.53;;;10.60;99.90;;;;;;5013785;28;20018;-74
2022/01/12 13:55:53;;;;;;;17.17;7.00;;;10.40;99.90;;;;;;5013448;28;20380;-73
2022/01/12 13:58:20;;;;;;;24.60;7.95;;;10.00;99.90;;;;;;5013493;28;20038;-72
2022/01/12 14:00:46;;;;;;;22.30;7.57;;;9.80;99.90;;;;;;5012200;28;20041;-73
2022/01/12 14:03:22;;;;;;;24.90;8.45;;;9.70;99.90;;;;;;5013387;28;20037;-72